createdAt,value
2023-01-08T00:01:08.132Z,116.00
2023-01-08T00:04:00.189Z,116.05
2023-01-08T00:06:48.113Z,113.80
2023-01-08T00:09:22.032Z,120.15
2023-01-08T00:12:10.092Z,113.20
2023-01-08T00:14:44.076Z,117.57
2023-01-08T00:17:32.085Z,120.43
2023-01-08T00:20:06.322Z,119.43
2023-01-08T00:22:54.068Z,114.80
2023-01-08T00:25:34.062Z,119.28
2023-01-08T00:28:15.221Z,111.35
2023-01-08T00:30:56.165Z,122.53
2023-01-08T00:33:37.213Z,106.38
2023-01-08T00:36:19.074Z,117.25
2023-01-08T00:39:00.918Z,104.60
2023-01-08T00:41:41.117Z,106.85
2023-01-08T00:44:22.141Z,116.65
2023-01-08T00:47:03.082Z,102.60
2023-01-08T00:49:44.178Z,114.78
2023-01-08T00:52:24.131Z,111.47
2023-01-08T00:55:05.158Z,105.97
2023-01-08T00:57:46.093Z,111.35
2023-01-08T01:00:34.077Z,102.28
2023-01-08T01:03:15.070Z,81.80
2023-01-08T01:05:56.197Z,114.38
2023-01-08T01:08:37.097Z,107.57
2023-01-08T01:11:28.122Z,103.88
2023-01-08T01:14:08.073Z,117.95
2023-01-08T01:16:49.234Z,109.25
2023-01-08T01:19:31.129Z,106.80
2023-01-08T01:22:12.190Z,94.72
2023-01-08T01:24:53.093Z,107.07
2023-01-08T01:27:41.072Z,123.03
2023-01-08T01:30:15.040Z,114.65
2023-01-08T01:33:03.113Z,95.82
2023-01-08T01:35:37.045Z,99.22
2023-01-08T01:38:25.138Z,103.30
2023-01-08T01:40:59.424Z,101.60
2023-01-08T01:43:56.066Z,102.53
2023-01-08T01:46:40.593Z,106.28
2023-01-08T01:49:36.066Z,114.05
2023-01-08T01:52:10.563Z,117.20
2023-01-08T01:54:58.116Z,129.18
2023-01-08T01:57:39.083Z,115.40
2023-01-08T02:00:27.105Z,125.13
2023-01-08T02:03:08.066Z,125.80
2023-01-08T02:05:58.151Z,109.75
2023-01-08T02:08:55.090Z,122.10
2023-01-08T02:11:39.187Z,123.60
2023-01-08T02:14:40.062Z,121.32
2023-01-08T02:17:30.099Z,121.88
2023-01-08T02:20:13.055Z,115.22
2023-01-08T02:23:19.086Z,126.53
2023-01-08T02:26:26.073Z,113.95
2023-01-08T02:29:18.105Z,135.80
2023-01-08T02:31:59.113Z,138.43
2023-01-08T02:34:53.099Z,125.13
2023-01-08T02:37:41.111Z,135.95
2023-01-08T02:40:22.123Z,122.75
2023-01-08T02:43:09.084Z,103.28
2023-01-08T02:45:53.120Z,114.35
2023-01-08T02:48:50.124Z,133.75
2023-01-08T02:51:31.140Z,110.43
2023-01-08T02:54:38.089Z,109.80
2023-01-08T02:57:26.110Z,127.60
2023-01-08T03:00:00.173Z,121.43
2023-01-08T03:02:50.587Z,125.18
2023-01-08T03:05:32.192Z,135.65
2023-01-08T03:08:20.119Z,135.60
2023-01-08T03:10:57.185Z,134.43
2023-01-08T03:16:51.142Z,108.78
2023-01-08T03:19:42.109Z,131.48
2023-01-08T03:22:25.139Z,122.60
2023-01-08T03:25:20.098Z,119.65
2023-01-08T03:28:12.133Z,106.18
2023-01-08T03:30:47.262Z,115.22
2023-01-08T03:33:35.105Z,108.10
2023-01-08T03:36:18.100Z,131.38
2023-01-08T03:39:32.111Z,124.82
2023-01-08T03:42:21.100Z,125.18
2023-01-08T03:44:55.196Z,96.28
2023-01-08T03:47:43.131Z,107.93
2023-01-08T03:50:21.222Z,106.68
2023-01-08T03:53:09.096Z,103.03
2023-01-08T03:55:43.260Z,109.32
2023-01-08T03:58:30.087Z,106.68
2023-01-08T04:01:04.219Z,96.65
2023-01-08T04:03:51.130Z,107.15
2023-01-08T04:06:25.186Z,102.75
2023-01-08T04:09:13.111Z,98.57
2023-01-08T04:11:47.206Z,95.93
2023-01-08T04:14:34.100Z,86.35
2023-01-08T04:17:08.171Z,79.90
2023-01-08T04:19:55.129Z,94.35
2023-01-08T04:22:29.173Z,85.45
2023-01-08T04:25:17.117Z,91.95
2023-01-08T04:27:51.191Z,92.00
2023-01-08T04:30:39.131Z,92.85
2023-01-08T04:33:20.110Z,85.13
2023-01-08T04:36:14.126Z,83.18
2023-01-08T04:39:01.118Z,97.38
2023-01-08T04:41:35.208Z,88.60
2023-01-08T04:44:22.099Z,81.00
2023-01-08T04:47:03.099Z,87.82
2023-01-08T04:49:57.077Z,82.80
2023-01-08T04:52:45.134Z,88.93
2023-01-08T04:55:19.179Z,95.05
2023-01-08T04:58:06.122Z,76.28
2023-01-08T05:00:40.207Z,90.15
2023-01-08T05:03:27.165Z,91.75
2023-01-08T05:06:01.249Z,89.22
2023-01-08T05:08:48.185Z,91.55
2023-01-08T05:11:29.122Z,88.10
2023-01-08T05:14:17.163Z,91.45
2023-01-08T05:16:51.174Z,84.75
2023-01-08T05:19:38.524Z,92.22
2023-01-08T05:22:20.096Z,90.95
2023-01-08T05:25:14.075Z,84.15
2023-01-08T05:28:02.100Z,81.30
2023-01-08T05:30:36.175Z,89.95
2023-01-08T05:33:23.124Z,83.57
2023-01-08T05:35:57.201Z,75.82
2023-01-08T05:38:45.118Z,85.20
2023-01-08T05:41:19.182Z,85.30
2023-01-08T05:44:07.141Z,95.70
2023-01-08T05:46:41.230Z,82.53
2023-01-08T05:49:28.095Z,89.50
2023-01-08T05:52:02.264Z,76.18
2023-01-08T05:54:49.161Z,64.90
2023-01-08T05:57:23.178Z,66.22
2023-01-08T06:00:12.110Z,86.40
2023-01-08T06:02:53.224Z,67.82
2023-01-08T06:05:40.122Z,80.57
2023-01-08T06:08:14.175Z,70.20
2023-01-08T06:11:02.142Z,73.07
2023-01-08T06:13:44.124Z,79.75
2023-01-08T06:16:38.097Z,74.00
2023-01-08T06:19:26.098Z,61.60
2023-01-08T06:22:00.215Z,67.25
2023-01-08T06:24:47.153Z,79.22
2023-01-08T06:27:21.217Z,74.88
2023-01-08T06:30:08.133Z,74.57
2023-01-08T06:32:49.118Z,65.38
2023-01-08T06:35:43.098Z,69.78
2023-01-08T06:38:37.111Z,66.63
2023-01-08T06:41:25.125Z,70.82
2023-01-08T06:44:06.151Z,79.82
2023-01-08T06:47:00.134Z,73.45
2023-01-08T06:49:47.126Z,78.93
2023-01-08T06:52:28.215Z,75.07
2023-01-08T06:55:08.104Z,74.60
2023-01-08T06:57:56.166Z,68.00
2023-01-08T07:00:30.110Z,76.25
2023-01-08T07:03:18.216Z,71.32
2023-01-08T07:05:52.171Z,75.25
2023-01-08T07:08:40.105Z,65.90
2023-01-08T07:11:14.369Z,76.45
2023-01-08T07:14:02.204Z,77.85
2023-01-08T07:16:36.472Z,70.60
2023-01-08T07:19:24.156Z,82.60
2023-01-08T07:21:58.075Z,76.35
2023-01-08T07:24:46.165Z,78.53
2023-01-08T07:27:20.213Z,68.65
2023-01-08T07:30:12.819Z,72.32
2023-01-08T07:32:52.099Z,67.93
2023-01-08T07:35:40.135Z,66.65
2023-01-08T07:38:21.124Z,58.70
2023-01-08T07:41:02.264Z,59.75
2023-01-08T07:43:50.136Z,62.97
2023-01-08T07:46:24.344Z,59.85
2023-01-08T07:49:12.147Z,59.60
2023-01-08T07:51:46.202Z,59.55
2023-01-08T07:54:34.136Z,63.25
2023-01-08T07:57:08.214Z,51.25
2023-01-08T07:59:55.140Z,59.08
2023-01-08T08:02:36.302Z,60.67
2023-01-08T08:05:30.122Z,66.15
2023-01-08T08:08:18.120Z,62.17
2023-01-08T08:10:52.200Z,65.03
2023-01-08T08:13:40.109Z,58.13
2023-01-08T08:16:21.325Z,51.97
2023-01-08T08:19:01.144Z,58.38
2023-01-08T08:21:42.206Z,53.92
2023-01-08T08:24:23.119Z,58.78
2023-01-08T08:27:11.139Z,58.53
2023-01-08T08:29:45.103Z,52.13
2023-01-08T08:32:33.107Z,46.30
2023-01-08T08:35:07.457Z,53.47
2023-01-08T08:37:55.145Z,53.33
2023-01-08T08:40:36.196Z,44.80
2023-01-08T08:43:17.239Z,50.95
2023-01-08T08:45:57.171Z,58.78
2023-01-08T08:48:38.246Z,48.85
2023-01-08T08:51:19.120Z,45.55
2023-01-08T08:54:00.214Z,58.13
2023-01-08T08:56:40.172Z,53.90
2023-01-08T08:59:29.122Z,37.20
2023-01-08T09:02:10.295Z,51.90
2023-01-08T09:04:51.272Z,48.97
2023-01-08T09:07:32.162Z,63.67
2023-01-08T09:10:13.234Z,52.67
2023-01-08T09:12:54.150Z,53.25
2023-01-08T09:15:42.165Z,51.55
2023-01-08T09:18:16.202Z,48.63
2023-01-08T09:21:04.136Z,49.80
2023-01-08T09:23:38.801Z,53.08
2023-01-08T09:26:26.140Z,51.90
2023-01-08T09:29:00.177Z,55.15
2023-01-08T09:31:48.209Z,51.38
2023-01-08T09:34:22.089Z,49.50
2023-01-08T09:37:10.123Z,48.63
2023-01-08T09:39:48.111Z,54.08
2023-01-08T09:42:42.120Z,49.85
2023-01-08T09:45:26.636Z,50.38
2023-01-08T09:48:26.165Z,55.40
2023-01-08T09:51:00.161Z,48.70
2023-01-08T09:53:48.165Z,48.05
2023-01-08T09:56:29.155Z,59.58
2023-01-08T09:59:18.170Z,56.28
2023-01-08T10:01:59.267Z,58.25
2023-01-08T10:04:40.220Z,53.40
2023-01-08T10:07:29.153Z,49.13
2023-01-08T10:10:17.125Z,55.85
2023-01-08T10:12:51.519Z,59.30
2023-01-08T10:15:39.135Z,55.38
2023-01-08T10:18:14.438Z,43.97
2023-01-08T10:21:02.149Z,51.35
2023-01-08T10:24:03.139Z,47.47
2023-01-08T10:26:52.620Z,45.15
2023-01-08T10:29:27.207Z,51.15
2023-01-08T10:32:26.148Z,37.83
2023-01-08T10:35:08.161Z,44.08
2023-01-08T10:37:57.183Z,57.50
2023-01-08T10:40:34.247Z,53.72
2023-01-08T10:43:27.174Z,54.78
2023-01-08T10:46:11.300Z,57.97
2023-01-08T10:49:00.158Z,47.13
2023-01-08T10:51:48.153Z,51.92
2023-01-08T10:54:40.993Z,55.67
2023-01-08T10:57:37.184Z,53.53
2023-01-08T11:00:31.202Z,55.88
2023-01-08T11:03:14.211Z,54.78
2023-01-08T11:05:56.184Z,58.20
2023-01-08T11:08:37.229Z,58.33
2023-01-08T11:11:18.148Z,56.08
2023-01-08T11:14:03.315Z,55.53
2023-01-08T11:16:47.198Z,55.67
2023-01-08T11:19:33.240Z,57.55
2023-01-08T11:22:25.185Z,49.75
2023-01-08T11:25:32.149Z,53.63
2023-01-08T11:28:23.161Z,45.72
2023-01-08T11:31:09.162Z,49.33
2023-01-08T11:33:58.139Z,65.43
2023-01-08T11:36:40.232Z,71.20
2023-01-08T11:39:28.189Z,80.38
2023-01-08T11:42:34.128Z,56.53
2023-01-08T11:45:38.210Z,63.13
2023-01-08T11:48:32.166Z,45.10
2023-01-08T11:51:28.177Z,58.92
2023-01-08T11:54:35.155Z,56.40
2023-01-08T11:57:41.192Z,53.40
2023-01-08T12:00:38.262Z,52.65
2023-01-08T12:03:52.164Z,37.95
2023-01-08T12:06:27.693Z,51.50
2023-01-08T12:09:14.181Z,56.63
2023-01-08T12:12:04.174Z,53.85
2023-01-08T12:15:14.165Z,45.90
2023-01-08T12:18:08.127Z,44.72
2023-01-08T12:20:58.128Z,44.08
2023-01-08T12:23:32.273Z,39.77
2023-01-08T12:26:27.144Z,37.88
2023-01-08T12:29:13.321Z,43.03
2023-01-08T12:32:09.197Z,45.13
2023-01-08T12:35:02.583Z,44.40
2023-01-08T12:37:54.149Z,42.20
2023-01-08T12:40:32.236Z,55.22
2023-01-08T12:43:33.157Z,54.17
2023-01-08T12:48:56.146Z,53.15
2023-01-08T12:51:39.213Z,43.20
2023-01-08T12:54:45.192Z,45.88
2023-01-08T12:57:26.152Z,40.67
2023-01-08T13:00:47.178Z,51.10
2023-01-08T13:03:36.163Z,46.60
2023-01-08T13:06:29.174Z,40.97
2023-01-08T13:09:34.135Z,45.63
2023-01-08T13:12:22.181Z,41.55
2023-01-08T13:14:58.294Z,48.00
2023-01-08T13:17:45.147Z,50.63
2023-01-08T13:20:35.164Z,55.72
2023-01-08T13:23:29.272Z,54.95
2023-01-08T13:26:11.160Z,43.78
2023-01-08T13:28:52.193Z,49.42
2023-01-08T13:31:29.347Z,57.42
2023-01-08T13:34:46.167Z,65.43
2023-01-08T13:37:27.538Z,47.15
2023-01-08T13:40:34.171Z,48.72
2023-01-08T13:43:15.180Z,43.42
2023-01-08T13:46:09.423Z,36.92
2023-01-08T13:49:09.196Z,40.72
2023-01-08T13:51:58.186Z,41.38
2023-01-08T13:54:54.148Z,41.85
2023-01-08T13:57:45.165Z,40.85
2023-01-08T14:00:26.306Z,44.50
2023-01-08T14:03:28.157Z,39.22
2023-01-08T14:06:30.194Z,32.45
2023-01-08T14:09:34.641Z,50.22
2023-01-08T14:12:23.184Z,41.53
2023-01-08T14:15:09.753Z,42.38
2023-01-08T14:17:50.192Z,45.50
2023-01-08T14:20:36.241Z,45.20
2023-01-08T14:23:26.246Z,58.05
2023-01-08T14:26:10.576Z,47.78
2023-01-08T14:28:58.165Z,50.08
2023-01-08T14:31:39.251Z,50.30
2023-01-08T14:34:21.164Z,53.33
2023-01-08T14:37:11.148Z,58.20
2023-01-08T14:39:48.323Z,64.05
2023-01-08T14:42:49.174Z,44.92
2023-01-08T14:48:26.207Z,44.17
2023-01-08T14:51:07.914Z,61.42
2023-01-08T14:54:24.163Z,52.35
2023-01-08T14:57:00.818Z,36.90
2023-01-08T14:59:50.193Z,46.83
2023-01-08T15:02:32.849Z,71.00
2023-01-08T15:05:33.208Z,49.85
2023-01-08T15:08:34.164Z,49.58
2023-01-08T15:11:19.252Z,55.97
2023-01-08T15:14:07.169Z,60.72
2023-01-08T15:16:45.719Z,58.05
2023-01-08T15:19:34.163Z,52.78
2023-01-08T15:22:16.325Z,66.90
2023-01-08T15:25:15.188Z,54.53
2023-01-08T15:28:17.156Z,44.05
2023-01-08T15:31:05.183Z,36.80
2023-01-08T15:33:39.377Z,47.60
2023-01-08T15:36:28.342Z,40.25
2023-01-08T15:39:02.316Z,44.63
2023-01-08T15:42:08.160Z,42.08
2023-01-08T15:44:49.176Z,49.47
2023-01-08T15:47:36.161Z,46.53
2023-01-08T15:50:10.226Z,47.17
2023-01-08T15:52:57.180Z,41.03
2023-01-08T15:55:39.169Z,40.88
2023-01-08T15:58:33.155Z,38.97
2023-01-08T16:01:20.263Z,39.00
2023-01-08T16:04:01.472Z,40.13
2023-01-08T16:06:43.168Z,45.75
2023-01-08T16:09:24.334Z,41.28
2023-01-08T16:12:04.172Z,35.90
2023-01-08T16:14:45.330Z,44.42
2023-01-08T16:17:25.182Z,45.15
2023-01-08T16:20:06.246Z,50.83
2023-01-08T16:22:47.154Z,43.80
2023-01-08T16:25:35.212Z,43.28
2023-01-08T16:28:09.251Z,43.83
2023-01-08T16:30:57.181Z,55.90
2023-01-08T16:33:38.365Z,44.72
2023-01-08T16:36:19.283Z,43.20
2023-01-08T16:39:00.227Z,47.05
2023-01-08T16:41:48.163Z,32.28
2023-01-08T16:44:30.214Z,39.95
2023-01-08T16:47:18.172Z,45.00
2023-01-08T16:49:59.230Z,51.97
2023-01-08T16:52:40.294Z,49.20
2023-01-08T16:55:20.157Z,45.65
2023-01-08T16:58:01.313Z,50.08
2023-01-08T17:00:42.183Z,40.15
2023-01-08T17:03:30.231Z,44.47
2023-01-08T17:06:25.158Z,45.75
2023-01-08T17:09:13.197Z,44.97
2023-01-08T17:11:47.783Z,49.65
2023-01-08T17:14:35.265Z,43.75
2023-01-08T17:17:16.219Z,39.15
2023-01-08T17:20:10.158Z,51.60
2023-01-08T17:22:57.238Z,41.72
2023-01-08T17:25:31.292Z,44.75
2023-01-08T17:28:18.228Z,53.45
2023-01-08T17:30:59.247Z,48.67
2023-01-08T17:33:56.155Z,44.10
2023-01-08T17:36:43.286Z,43.80
2023-01-08T17:39:18.253Z,42.35
2023-01-08T17:42:24.367Z,43.75
2023-01-08T17:44:58.483Z,53.15
2023-01-08T17:47:46.247Z,47.65
2023-01-08T17:50:20.261Z,49.63
2023-01-08T17:53:08.335Z,44.83
2023-01-08T17:55:50.179Z,53.08
2023-01-08T17:58:44.232Z,48.80
2023-01-08T18:01:31.267Z,49.25
2023-01-08T18:04:12.316Z,49.55
2023-01-08T18:06:52.285Z,46.63
2023-01-08T18:09:35.156Z,46.55
2023-01-08T18:12:18.340Z,42.35
2023-01-08T18:15:06.279Z,44.10
2023-01-08T18:17:40.373Z,45.97
2023-01-08T18:20:28.310Z,49.75
2023-01-08T18:23:02.274Z,42.13
2023-01-08T18:25:53.344Z,43.28
2023-01-08T18:28:34.186Z,39.35
2023-01-08T18:31:23.407Z,45.80
2023-01-08T18:34:04.204Z,53.20
2023-01-08T18:36:52.363Z,49.85
2023-01-08T18:39:35.382Z,47.60
2023-01-08T18:42:28.586Z,44.58
2023-01-08T18:45:10.329Z,42.80
2023-01-08T18:47:58.370Z,49.28
2023-01-08T18:50:39.343Z,45.38
2023-01-08T18:53:20.291Z,43.08
2023-01-08T18:56:01.203Z,54.13
2023-01-08T18:58:42.485Z,50.22
2023-01-08T19:01:23.286Z,51.28
2023-01-08T19:04:04.414Z,45.67
2023-01-08T19:06:44.187Z,54.22
2023-01-08T19:09:25.256Z,53.42
2023-01-08T19:12:06.344Z,47.83
2023-01-08T19:14:54.301Z,54.75
2023-01-08T19:17:30.982Z,54.33
2023-01-08T19:20:18.367Z,46.08
2023-01-08T19:22:52.824Z,52.42
2023-01-08T19:25:40.364Z,51.45
2023-01-08T19:28:14.155Z,58.58
2023-01-08T19:31:12.242Z,45.70
2023-01-08T19:33:53.220Z,54.95
2023-01-08T19:36:43.618Z,41.97
2023-01-08T19:39:24.377Z,47.55
2023-01-08T19:42:24.169Z,41.45
2023-01-08T19:45:05.372Z,50.63
2023-01-08T19:47:54.902Z,47.17
2023-01-08T19:50:30.584Z,49.17
2023-01-08T19:53:18.203Z,46.25
2023-01-08T19:55:52.318Z,50.53
2023-01-08T19:58:40.403Z,49.53
2023-01-08T20:01:28.369Z,54.88
2023-01-08T20:04:09.277Z,38.53
2023-01-08T20:06:50.363Z,49.08
2023-01-08T20:09:32.855Z,35.83
2023-01-08T20:12:14.402Z,55.78
2023-01-08T20:14:55.435Z,46.35
2023-01-08T20:17:35.388Z,47.47
2023-01-08T20:20:24.394Z,50.53
2023-01-08T20:23:04.194Z,42.78
2023-01-08T20:25:46.059Z,46.83
2023-01-08T20:28:26.336Z,49.65
2023-01-08T20:31:25.263Z,42.10
2023-01-08T20:34:00.861Z,40.65
2023-01-08T20:36:48.216Z,44.53
2023-01-08T20:39:28.376Z,41.63
2023-01-08T20:42:10.085Z,39.67
2023-01-08T20:44:50.384Z,40.40
2023-01-08T20:47:38.233Z,43.25
2023-01-08T20:50:20.048Z,44.80
2023-01-08T20:53:01.286Z,36.45
2023-01-08T20:55:43.199Z,41.50
2023-01-08T20:58:24.273Z,43.13
2023-01-08T21:01:11.267Z,40.80
2023-01-08T21:03:59.236Z,35.42
2023-01-08T21:06:34.165Z,50.55
2023-01-08T21:09:24.218Z,46.40
2023-01-08T21:12:05.363Z,40.35
2023-01-08T21:14:46.402Z,34.80
2023-01-08T21:17:27.309Z,51.33
2023-01-08T21:20:15.246Z,43.42
2023-01-08T21:22:49.234Z,51.85
2023-01-08T21:25:37.204Z,40.95
2023-01-08T21:28:11.161Z,42.05
2023-01-08T21:30:59.223Z,38.03
2023-01-08T21:33:40.284Z,39.88
2023-01-08T21:36:38.208Z,40.92
2023-01-08T21:39:12.204Z,47.22
2023-01-08T21:42:18.217Z,45.83
2023-01-08T21:45:17.238Z,48.95
2023-01-08T21:48:05.204Z,43.17
2023-01-08T21:50:39.191Z,46.95
2023-01-08T21:53:39.259Z,46.92
2023-01-08T21:56:13.184Z,46.90
2023-01-08T21:59:01.231Z,45.35
2023-01-08T22:01:55.248Z,45.28
2023-01-08T22:04:43.203Z,57.45
2023-01-08T22:07:17.345Z,42.70
2023-01-08T22:10:07.234Z,45.03
2023-01-08T22:12:48.216Z,52.80
2023-01-08T22:15:36.255Z,50.50
2023-01-08T22:18:17.217Z,51.10
2023-01-08T22:21:15.202Z,50.38
2023-01-08T22:24:03.237Z,51.40
2023-01-08T22:26:37.289Z,41.42
2023-01-08T22:29:25.260Z,40.50
2023-01-08T22:31:59.306Z,50.75
2023-01-08T22:34:46.245Z,41.53
2023-01-08T22:37:21.690Z,43.15
2023-01-08T22:40:08.220Z,40.42
2023-01-08T22:42:49.207Z,42.53
2023-01-08T22:45:36.316Z,43.22
2023-01-08T22:48:10.401Z,39.63
2023-01-08T22:50:58.206Z,41.92
2023-01-08T22:53:39.225Z,48.00
2023-01-08T22:56:34.246Z,44.13
2023-01-08T22:59:21.361Z,40.35
2023-01-08T23:02:02.257Z,43.60
2023-01-08T23:04:42.273Z,40.90
2023-01-08T23:07:23.223Z,57.85
2023-01-08T23:10:11.207Z,47.08
2023-01-08T23:12:52.196Z,35.67
2023-01-08T23:15:46.218Z,37.28
2023-01-08T23:18:33.235Z,44.65
2023-01-08T23:21:12.305Z,47.17
2023-01-08T23:24:00.240Z,54.78
2023-01-08T23:26:36.337Z,50.13
2023-01-08T23:29:23.207Z,43.80
2023-01-08T23:31:57.770Z,37.38
2023-01-08T23:34:44.285Z,42.28
2023-01-08T23:37:18.289Z,41.92
2023-01-08T23:40:05.229Z,39.45
2023-01-08T23:42:39.288Z,45.40
2023-01-08T23:45:33.281Z,44.65
2023-01-08T23:48:27.233Z,41.42
2023-01-08T23:51:15.220Z,39.63
2023-01-08T23:53:58.221Z,43.63
2023-01-08T23:56:53.198Z,40.03
2023-01-08T23:59:41.260Z,41.45
